MSC Ines — 3EFZ3 — position and weather

sailwx.info

Track history (hours):
 
Tides and Currents Weather Stations Pressure Air Temp Water Temp Dewpoint Dewpoint Depression Visibility Wind Speed Wind Dir Waves Ship Positions

MSC Ines

Last reported at 2017-Sep-06 11:58 UTC. Time now 2017-Sep-21 14:12 UTC.
Position N 01°20' E 103°17'.
Warning: this ship's position is 15 days out of date.

Length 349 m; draft 12.8 m.

Type: Ship (hazmat cat A). MMSI: 356112000.

Date/timePositionNaut miles runAvg speedWind from/ knotsBaromVisibWave heightAir tempDewpointWater temp
2017-Sep-06 11:58N 01°20' E 103°17'920.0
2017-Sep-06 11:31N 01°15' E 103°25'1020.4
2017-Sep-06 11:01N 01°12' E 103°35'612.6
2017-Sep-06 10:30N 01°13' E 103°41'510.8
2017-Sep-06 10:01N 01°16' E 103°46'1 1.5
2017-Sep-06 09:28N 01°16' E 103°46'0 0.0
2017-Sep-06 08:58N 01°16' E 103°46'0 0.0
2017-Sep-06 08:29N 01°16' E 103°46'0 0.0
2017-Sep-06 07:59N 01°16' E 103°46'0 0.0
2017-Sep-06 07:29N 01°16' E 103°46'0 0.0
2017-Sep-06 06:58N 01°16' E 103°46'0 0.0
2017-Sep-06 06:29N 01°16' E 103°46'0 0.0
2017-Sep-06 05:59N 01°16' E 103°46'0 0.0
2017-Sep-06 05:29N 01°16' E 103°46'0 0.0
2017-Sep-06 04:59N 01°16' E 103°46'0 0.0
2017-Sep-06 04:25N 01°16' E 103°46'0 0.0
2017-Sep-06 03:59N 01°16' E 103°46'0 0.0
2017-Sep-06 03:26N 01°16' E 103°46'0 0.0
2017-Sep-06 02:59N 01°16' E 103°46'0 0.0
2017-Sep-06 02:28N 01°16' E 103°46'0 0.0
2017-Sep-06 01:58N 01°16' E 103°46'0 0.0
2017-Sep-06 01:26N 01°16' E 103°46'0 0.0
2017-Sep-06 00:58N 01°16' E 103°46'0 0.0
2017-Sep-06 00:28N 01°16' E 103°46'0 0.0
2017-Sep-05 23:55N 01°16' E 103°46'0 0.0
2017-Sep-05 23:29N 01°16' E 103°46'0 0.0
2017-Sep-05 22:55N 01°16' E 103°46'0 0.0
2017-Sep-05 22:23N 01°16' E 103°46'0 0.0
2017-Sep-05 21:56N 01°16' E 103°46'0 0.0
2017-Sep-05 21:25N 01°16' E 103°46'0 0.0
2017-Sep-05 20:55N 01°16' E 103°46'0 0.0
2017-Sep-05 20:13N 01°16' E 103°46'0 0.0
2017-Sep-05 19:59N 01°16' E 103°46'0 0.0
2017-Sep-05 19:29N 01°16' E 103°46'0 0.0
2017-Sep-05 18:59N 01°16' E 103°46'0 0.0
2017-Sep-05 18:29N 01°16' E 103°46'0 0.0
2017-Sep-05 17:56N 01°16' E 103°46'0 0.0
2017-Sep-05 17:25N 01°16' E 103°46'0 0.0
2017-Sep-05 16:59N 01°16' E 103°46'0 0.0
2017-Sep-05 16:29N 01°16' E 103°46'0 0.0
2017-Sep-05 15:59N 01°16' E 103°46'0 0.0
2017-Sep-05 15:28N 01°16' E 103°46'0 0.0
2017-Sep-05 14:58N 01°16' E 103°46'0 0.0
2017-Sep-05 14:29N 01°16' E 103°46'0 0.0
2017-Sep-05 13:59N 01°16' E 103°46'0 0.0
2017-Sep-05 13:28N 01°16' E 103°46'0 0.0
2017-Sep-05 12:58N 01°16' E 103°46'0 0.0
2017-Sep-05 12:29N 01°16' E 103°46'0 0.0
2017-Sep-05 11:59N 01°16' E 103°46'0 0.0
2017-Sep-05 11:28N 01°16' E 103°46'0 0.0
2017-Sep-05 10:58N 01°16' E 103°46'0 0.0
2017-Sep-05 10:29N 01°16' E 103°46'0 0.0
2017-Sep-05 09:59N 01°16' E 103°46'0 0.0
2017-Sep-05 09:29N 01°16' E 103°46'0 0.0
2017-Sep-05 08:59N 01°16' E 103°46'0 0.0
2017-Sep-05 08:29N 01°16' E 103°46'0 0.0
2017-Sep-05 07:55N 01°16' E 103°46'0 0.0
2017-Sep-05 07:30N 01°16' E 103°46'0 0.4
2017-Sep-05 07:00N 01°16' E 103°46'2 4.0
2017-Sep-05 06:31N 01°14' E 103°47'4 8.9
2017-Sep-05 06:01N 01°13' E 103°51'3 6.6
2017-Sep-05 05:30N 01°14' E 103°54'4 6.9
2017-Sep-05 05:00N 01°15' E 103°57'4 7.4
2017-Sep-05 04:30N 01°16' E 104°01'  
2017-Sep-01 09:32N 22°22' E 113°55'014.4
2017-Sep-01 09:30N 22°22' E 113°54'5 8.5
2017-Sep-01 08:57N 22°27' E 113°53'1 2.4
2017-Sep-01 08:27N 22°28' E 113°53'0 0.0
2017-Aug-31 17:19N 22°28' E 113°53'0 0.8
2017-Aug-31 17:00N 22°27' E 113°53'4 7.0
2017-Aug-31 16:30N 22°24' E 113°54'1 2.8
2017-Aug-31 16:00N 22°23' E 113°54'11 2.1
2017-Aug-31 10:39N 22°13' E 113°49'316.5
2017-Aug-31 10:30N 22°15' E 113°49'714.5
2017-Aug-31 10:00N 22°22' E 113°47'714.4
2017-Aug-31 09:30N 22°29' E 113°45'510.3
2017-Aug-31 09:00N 22°34' E 113°43'4 8.1
2017-Aug-31 08:30N 22°38' E 113°42'1 0.5
2017-Aug-31 06:23N 22°39' E 113°41'0 0.0
2017-Aug-31 05:56N 22°39' E 113°41'0 0.0
2017-Aug-31 05:11N 22°39' E 113°41'0 0.0
2017-Aug-31 04:35N 22°39' E 113°41'0 0.0
2017-Aug-31 04:29N 22°39' E 113°41'0 0.0
2017-Aug-31 03:59N 22°39' E 113°41'0 0.0
2017-Aug-31 03:26N 22°39' E 113°41'0 0.0
2017-Aug-31 02:53N 22°39' E 113°41'0 0.0
2017-Aug-31 02:29N 22°39' E 113°41'0 0.0
2017-Aug-31 01:51N 22°39' E 113°41'0 0.0
2017-Aug-31 01:30N 22°39' E 113°41'0 0.2
2017-Aug-31 00:59N 22°39' E 113°41'4 8.8
2017-Aug-31 00:31N 22°35' E 113°43'714.6
2017-Aug-31 00:00N 22°28' E 113°45'714.6
2017-Aug-30 23:30N 22°21' E 113°48'  
2017-Aug-28 10:23N 23°43' E 118°10'4 6.6
2017-Aug-28 09:43N 23°46' E 118°13'1 6.5
2017-Aug-28 09:30N 23°47' E 118°14'  
Track history (hours):
 
Tides and Currents Weather Stations Pressure Air Temp Water Temp Dewpoint Dewpoint Depression Visibility Wind Speed Wind Dir Waves Ship Positions

MSC Ines

Last reported at 2017-Sep-06 11:58 UTC. Time now 2017-Sep-21 14:12 UTC.
Position N 01°20' E 103°17'.
Warning: this ship's position is 15 days out of date.

Length 349 m; draft 12.8 m.

Type: Ship (hazmat cat A). MMSI: 356112000.

Date/timePositionNaut miles runAvg speedWind from/ knotsBaromVisibWave heightAir tempDewpointWater temp
2017-Sep-06 11:58N 01°20' E 103°17'920.0
2017-Sep-06 11:31N 01°15' E 103°25'1020.4
2017-Sep-06 11:01N 01°12' E 103°35'612.6
2017-Sep-06 10:30N 01°13' E 103°41'510.8
2017-Sep-06 10:01N 01°16' E 103°46'1 1.5
2017-Sep-06 09:28N 01°16' E 103°46'0 0.0
2017-Sep-06 08:58N 01°16' E 103°46'0 0.0
2017-Sep-06 08:29N 01°16' E 103°46'0 0.0
2017-Sep-06 07:59N 01°16' E 103°46'0 0.0
2017-Sep-06 07:29N 01°16' E 103°46'0 0.0
2017-Sep-06 06:58N 01°16' E 103°46'0 0.0
2017-Sep-06 06:29N 01°16' E 103°46'0 0.0
2017-Sep-06 05:59N 01°16' E 103°46'0 0.0
2017-Sep-06 05:29N 01°16' E 103°46'0 0.0
2017-Sep-06 04:59N 01°16' E 103°46'0 0.0
2017-Sep-06 04:25N 01°16' E 103°46'0 0.0
2017-Sep-06 03:59N 01°16' E 103°46'0 0.0
2017-Sep-06 03:26N 01°16' E 103°46'0 0.0
2017-Sep-06 02:59N 01°16' E 103°46'0 0.0
2017-Sep-06 02:28N 01°16' E 103°46'0 0.0
2017-Sep-06 01:58N 01°16' E 103°46'0 0.0
2017-Sep-06 01:26N 01°16' E 103°46'0 0.0
2017-Sep-06 00:58N 01°16' E 103°46'0 0.0
2017-Sep-06 00:28N 01°16' E 103°46'0 0.0
2017-Sep-05 23:55N 01°16' E 103°46'0 0.0
2017-Sep-05 23:29N 01°16' E 103°46'0 0.0
2017-Sep-05 22:55N 01°16' E 103°46'0 0.0
2017-Sep-05 22:23N 01°16' E 103°46'0 0.0
2017-Sep-05 21:56N 01°16' E 103°46'0 0.0
2017-Sep-05 21:25N 01°16' E 103°46'0 0.0
2017-Sep-05 20:55N 01°16' E 103°46'0 0.0
2017-Sep-05 20:13N 01°16' E 103°46'0 0.0
2017-Sep-05 19:59N 01°16' E 103°46'0 0.0
2017-Sep-05 19:29N 01°16' E 103°46'0 0.0
2017-Sep-05 18:59N 01°16' E 103°46'0 0.0
2017-Sep-05 18:29N 01°16' E 103°46'0 0.0
2017-Sep-05 17:56N 01°16' E 103°46'0 0.0
2017-Sep-05 17:25N 01°16' E 103°46'0 0.0
2017-Sep-05 16:59N 01°16' E 103°46'0 0.0
2017-Sep-05 16:29N 01°16' E 103°46'0 0.0
2017-Sep-05 15:59N 01°16' E 103°46'0 0.0
2017-Sep-05 15:28N 01°16' E 103°46'0 0.0
2017-Sep-05 14:58N 01°16' E 103°46'0 0.0
2017-Sep-05 14:29N 01°16' E 103°46'0 0.0
2017-Sep-05 13:59N 01°16' E 103°46'0 0.0
2017-Sep-05 13:28N 01°16' E 103°46'0 0.0
2017-Sep-05 12:58N 01°16' E 103°46'0 0.0
2017-Sep-05 12:29N 01°16' E 103°46'0 0.0
2017-Sep-05 11:59N 01°16' E 103°46'0 0.0
2017-Sep-05 11:28N 01°16' E 103°46'0 0.0
2017-Sep-05 10:58N 01°16' E 103°46'0 0.0
2017-Sep-05 10:29N 01°16' E 103°46'0 0.0
2017-Sep-05 09:59N 01°16' E 103°46'0 0.0
2017-Sep-05 09:29N 01°16' E 103°46'0 0.0
2017-Sep-05 08:59N 01°16' E 103°46'0 0.0
2017-Sep-05 08:29N 01°16' E 103°46'0 0.0
2017-Sep-05 07:55N 01°16' E 103°46'0 0.0
2017-Sep-05 07:30N 01°16' E 103°46'0 0.4
2017-Sep-05 07:00N 01°16' E 103°46'2 4.0
2017-Sep-05 06:31N 01°14' E 103°47'4 8.9
2017-Sep-05 06:01N 01°13' E 103°51'3 6.6
2017-Sep-05 05:30N 01°14' E 103°54'4 6.9
2017-Sep-05 05:00N 01°15' E 103°57'4 7.4
2017-Sep-05 04:30N 01°16' E 104°01'  
2017-Sep-01 09:32N 22°22' E 113°55'014.4
2017-Sep-01 09:30N 22°22' E 113°54'5 8.5
2017-Sep-01 08:57N 22°27' E 113°53'1 2.4
2017-Sep-01 08:27N 22°28' E 113°53'0 0.0
2017-Aug-31 17:19N 22°28' E 113°53'0 0.8
2017-Aug-31 17:00N 22°27' E 113°53'4 7.0
2017-Aug-31 16:30N 22°24' E 113°54'1 2.8
2017-Aug-31 16:00N 22°23' E 113°54'11 2.1
2017-Aug-31 10:39N 22°13' E 113°49'316.5
2017-Aug-31 10:30N 22°15' E 113°49'714.5
2017-Aug-31 10:00N 22°22' E 113°47'714.4
2017-Aug-31 09:30N 22°29' E 113°45'510.3
2017-Aug-31 09:00N 22°34' E 113°43'4 8.1
2017-Aug-31 08:30N 22°38' E 113°42'1 0.5
2017-Aug-31 06:23N 22°39' E 113°41'0 0.0
2017-Aug-31 05:56N 22°39' E 113°41'0 0.0
2017-Aug-31 05:11N 22°39' E 113°41'0 0.0
2017-Aug-31 04:35N 22°39' E 113°41'0 0.0
2017-Aug-31 04:29N 22°39' E 113°41'0 0.0
2017-Aug-31 03:59N 22°39' E 113°41'0 0.0
2017-Aug-31 03:26N 22°39' E 113°41'0 0.0
2017-Aug-31 02:53N 22°39' E 113°41'0 0.0
2017-Aug-31 02:29N 22°39' E 113°41'0 0.0
2017-Aug-31 01:51N 22°39' E 113°41'0 0.0
2017-Aug-31 01:30N 22°39' E 113°41'0 0.2
2017-Aug-31 00:59N 22°39' E 113°41'4 8.8
2017-Aug-31 00:31N 22°35' E 113°43'714.6
2017-Aug-31 00:00N 22°28' E 113°45'714.6
2017-Aug-30 23:30N 22°21' E 113°48'  
2017-Aug-28 10:23N 23°43' E 118°10'4 6.6
2017-Aug-28 09:43N 23°46' E 118°13'1 6.5
2017-Aug-28 09:30N 23°47' E 118°14'  

Dump ship's entire track history